createdAt,value
2023-03-03T00:00:55.261Z,3.67
2023-03-03T00:01:55.275Z,3.67
2023-03-03T00:02:55.251Z,3.64
2023-03-03T00:03:55.236Z,3.67
2023-03-03T00:04:55.227Z,3.65
2023-03-03T00:05:55.219Z,3.58
2023-03-03T00:06:55.201Z,3.65
2023-03-03T00:07:55.180Z,3.61
2023-03-03T00:08:55.180Z,3.57
2023-03-03T00:09:55.150Z,3.57
2023-03-03T00:10:55.145Z,3.58
2023-03-03T00:11:55.158Z,3.53
2023-03-03T00:12:55.121Z,3.61
2023-03-03T00:13:55.136Z,3.57
2023-03-03T00:14:55.112Z,3.50
2023-03-03T00:15:55.140Z,3.52
2023-03-03T00:16:55.094Z,3.42
2023-03-03T00:17:55.097Z,3.46
2023-03-03T00:18:55.067Z,3.49
2023-03-03T00:19:55.056Z,3.36
2023-03-03T00:20:55.030Z,3.31
2023-03-03T00:21:55.031Z,3.40
2023-03-03T00:22:55.027Z,3.40
2023-03-03T00:23:55.006Z,3.42
2023-03-03T00:24:54.997Z,3.39
2023-03-03T00:25:55.011Z,3.39
2023-03-03T00:26:54.994Z,3.31
2023-03-03T00:27:54.948Z,3.21
2023-03-03T00:28:54.941Z,3.21
2023-03-03T00:29:54.971Z,3.24
2023-03-03T00:30:54.957Z,3.15
2023-03-03T00:31:54.974Z,3.25
2023-03-03T00:32:54.922Z,3.24
2023-03-03T00:33:55.014Z,3.16
2023-03-03T00:34:54.886Z,3.15
2023-03-03T00:35:54.932Z,3.09
2023-03-03T00:36:54.855Z,3.20
2023-03-03T00:37:54.851Z,3.16
2023-03-03T00:38:54.829Z,3.13
2023-03-03T00:39:54.828Z,3.13
2023-03-03T00:40:54.820Z,3.05
2023-03-03T00:41:54.806Z,3.09
2023-03-03T00:42:54.802Z,3.15
2023-03-03T00:43:54.773Z,3.07
2023-03-03T00:44:54.762Z,3.07
2023-03-03T00:45:54.861Z,3.05
2023-03-03T00:46:54.752Z,2.97
2023-03-03T00:47:54.743Z,3.07
2023-03-03T00:48:54.735Z,3.06
2023-03-03T00:49:54.735Z,3.02
2023-03-03T00:50:54.710Z,3.02
2023-03-03T00:51:54.695Z,3.05
2023-03-03T00:52:54.686Z,2.87
2023-03-03T00:53:54.675Z,3.00
2023-03-03T00:54:54.662Z,3.00
2023-03-03T00:55:54.656Z,2.79
2023-03-03T00:56:54.644Z,2.95
2023-03-03T00:57:54.638Z,2.98
2023-03-03T00:58:54.650Z,2.89
2023-03-03T00:59:54.602Z,2.91
2023-03-03T01:00:54.598Z,2.81
2023-03-03T01:01:54.694Z,2.91
2023-03-03T01:02:54.660Z,2.89
2023-03-03T01:03:54.544Z,2.79
2023-03-03T01:04:54.542Z,2.85
2023-03-03T01:05:54.539Z,2.74
2023-03-03T01:06:54.524Z,2.84
2023-03-03T01:07:54.528Z,2.84
2023-03-03T01:08:54.500Z,2.82
2023-03-03T01:09:54.493Z,2.79
2023-03-03T01:10:54.494Z,2.74
2023-03-03T01:11:54.458Z,2.70
2023-03-03T01:12:54.461Z,2.70
2023-03-03T01:13:54.541Z,2.66
2023-03-03T01:14:54.431Z,2.66
2023-03-03T01:15:54.527Z,2.67
2023-03-03T01:16:54.410Z,2.70
2023-03-03T01:17:54.442Z,2.51
2023-03-03T01:18:54.387Z,2.63
2023-03-03T01:19:54.369Z,2.61
2023-03-03T01:20:54.360Z,2.63
2023-03-03T01:21:54.359Z,2.63
2023-03-03T01:22:54.356Z,2.63
2023-03-03T01:23:54.328Z,2.67
2023-03-03T01:24:54.312Z,2.64
2023-03-03T01:25:54.298Z,2.66
2023-03-03T01:26:54.290Z,2.67
2023-03-03T01:27:54.307Z,2.58
2023-03-03T01:28:54.259Z,2.69
2023-03-03T01:29:54.255Z,2.63
2023-03-03T01:30:54.319Z,2.70
2023-03-03T01:31:54.273Z,2.51
2023-03-03T01:32:54.222Z,2.53
2023-03-03T01:33:54.265Z,2.49
2023-03-03T01:34:54.197Z,2.49
2023-03-03T01:35:54.261Z,2.51
2023-03-03T01:36:54.185Z,2.66
2023-03-03T01:37:54.162Z,2.48
2023-03-03T01:38:54.161Z,2.51
2023-03-03T01:39:54.141Z,2.52
2023-03-03T01:40:54.129Z,2.53
2023-03-03T01:41:54.120Z,2.51
2023-03-03T01:42:54.105Z,2.44
2023-03-03T01:43:54.115Z,2.41
2023-03-03T01:44:54.085Z,2.34
2023-03-03T01:45:54.074Z,2.48
2023-03-03T01:46:54.071Z,2.31
2023-03-03T01:47:54.065Z,2.40
2023-03-03T01:48:54.075Z,2.31
2023-03-03T01:49:54.054Z,2.31
2023-03-03T01:50:54.025Z,2.41
2023-03-03T01:51:54.020Z,2.23
2023-03-03T01:52:54.004Z,2.23
2023-03-03T01:53:54.013Z,2.34
2023-03-03T01:54:53.981Z,2.23
2023-03-03T01:55:53.978Z,2.28
2023-03-03T01:56:53.957Z,2.13
2023-03-03T01:57:53.940Z,2.10
2023-03-03T01:58:53.951Z,2.22
2023-03-03T01:59:53.935Z,2.19
2023-03-03T02:00:53.898Z,2.20
2023-03-03T02:01:53.947Z,2.23
2023-03-03T02:02:53.912Z,2.27
2023-03-03T02:03:53.886Z,2.17
2023-03-03T02:04:53.866Z,2.09
2023-03-03T02:05:53.869Z,2.13
2023-03-03T02:06:53.842Z,2.16
2023-03-03T02:07:53.836Z,2.13
2023-03-03T02:08:53.826Z,2.10
2023-03-03T02:09:53.814Z,2.01
2023-03-03T02:10:53.813Z,2.10
2023-03-03T02:11:53.793Z,2.02
2023-03-03T02:12:53.780Z,1.94
2023-03-03T02:13:53.774Z,2.01
2023-03-03T02:14:53.778Z,2.04
2023-03-03T02:15:53.740Z,1.91
2023-03-03T02:16:53.738Z,2.01
2023-03-03T02:17:53.730Z,2.02
2023-03-03T02:18:53.727Z,1.99
2023-03-03T02:19:53.698Z,1.97
2023-03-03T02:20:53.694Z,1.99
2023-03-03T02:21:54.252Z,1.98
2023-03-03T02:22:53.657Z,1.98
2023-03-03T02:23:53.678Z,2.02
2023-03-03T02:24:53.634Z,1.93
2023-03-03T02:25:53.633Z,2.02
2023-03-03T02:26:53.624Z,2.02
2023-03-03T02:27:53.606Z,1.99
2023-03-03T02:28:53.605Z,1.94
2023-03-03T02:29:53.583Z,2.04
2023-03-03T02:30:53.567Z,2.01
2023-03-03T02:31:53.686Z,2.01
2023-03-03T02:32:53.548Z,2.02
2023-03-03T02:33:53.552Z,1.97
2023-03-03T02:34:53.519Z,2.01
2023-03-03T02:35:53.547Z,2.08
2023-03-03T02:36:53.524Z,1.97
2023-03-03T02:37:53.513Z,1.99
2023-03-03T02:38:53.494Z,1.91
2023-03-03T02:39:53.471Z,1.87
2023-03-03T02:40:53.456Z,1.89
2023-03-03T02:41:53.464Z,1.87
2023-03-03T02:42:53.447Z,1.85
2023-03-03T02:43:53.463Z,1.76
2023-03-03T02:44:53.424Z,1.87
2023-03-03T02:45:53.503Z,1.83
2023-03-03T02:46:53.398Z,1.90
2023-03-03T02:47:53.384Z,1.85
2023-03-03T02:48:53.366Z,1.65
2023-03-03T02:49:53.378Z,1.72
2023-03-03T02:50:53.346Z,1.79
2023-03-03T02:51:53.347Z,1.75
2023-03-03T02:52:53.336Z,1.80
2023-03-03T02:53:53.342Z,1.72
2023-03-03T02:54:53.314Z,1.76
2023-03-03T02:55:53.292Z,1.69
2023-03-03T02:56:53.291Z,1.75
2023-03-03T02:57:53.273Z,1.69
2023-03-03T02:58:53.246Z,1.75
2023-03-03T02:59:53.253Z,1.71
2023-03-03T03:00:53.304Z,1.55
2023-03-03T03:01:53.216Z,1.72
2023-03-03T03:02:53.197Z,1.76
2023-03-03T03:03:53.246Z,1.73
2023-03-03T03:04:53.188Z,1.68
2023-03-03T03:05:53.180Z,1.57
2023-03-03T03:06:53.176Z,1.65
2023-03-03T03:07:53.158Z,1.57
2023-03-03T03:08:53.141Z,1.64
2023-03-03T03:09:53.161Z,1.65
2023-03-03T03:10:53.107Z,1.61
2023-03-03T03:11:53.110Z,1.57
2023-03-03T03:12:53.100Z,1.64
2023-03-03T03:13:53.092Z,1.57
2023-03-03T03:14:53.089Z,1.52
2023-03-03T03:15:53.074Z,1.44
2023-03-03T03:16:53.086Z,1.57
2023-03-03T03:17:53.050Z,1.54
2023-03-03T03:18:53.031Z,1.40
2023-03-03T03:19:53.034Z,1.47
2023-03-03T03:20:52.997Z,1.44
2023-03-03T03:21:52.989Z,1.46
2023-03-03T03:22:52.986Z,1.44
2023-03-03T03:23:52.978Z,1.42
2023-03-03T03:24:52.964Z,1.43
2023-03-03T03:25:52.968Z,1.42
2023-03-03T03:26:52.962Z,1.44
2023-03-03T03:27:52.927Z,1.39
2023-03-03T03:28:53.086Z,1.44
2023-03-03T03:29:52.937Z,1.39
2023-03-03T03:30:52.931Z,1.39
2023-03-03T03:31:53.045Z,1.37
2023-03-03T03:32:52.861Z,1.43
2023-03-03T03:33:52.853Z,1.42
2023-03-03T03:34:52.862Z,1.39
2023-03-03T03:35:52.924Z,1.34
2023-03-03T03:36:52.829Z,1.32
2023-03-03T03:37:52.836Z,1.28
2023-03-03T03:38:52.818Z,1.42
2023-03-03T03:39:52.805Z,1.22
2023-03-03T03:40:52.780Z,1.37
2023-03-03T03:41:52.797Z,1.21
2023-03-03T03:42:52.780Z,1.34
2023-03-03T03:43:52.757Z,1.33
2023-03-03T03:44:52.740Z,1.26
2023-03-03T03:45:52.805Z,1.22
2023-03-03T03:46:52.700Z,1.25
2023-03-03T03:47:52.709Z,1.16
2023-03-03T03:48:52.694Z,1.22
2023-03-03T03:49:52.697Z,1.16
2023-03-03T03:50:52.671Z,1.24
2023-03-03T03:51:52.662Z,1.16
2023-03-03T03:52:52.636Z,1.24
2023-03-03T03:53:52.662Z,1.18
2023-03-03T03:54:52.632Z,1.21
2023-03-03T03:55:52.620Z,1.22
2023-03-03T03:56:52.594Z,1.12
2023-03-03T03:57:52.627Z,1.24
2023-03-03T03:58:52.585Z,1.24
2023-03-03T03:59:52.575Z,1.24
2023-03-03T04:00:52.551Z,1.24
2023-03-03T04:01:52.557Z,1.15
2023-03-03T04:02:52.681Z,1.28
2023-03-03T04:03:52.537Z,1.24
2023-03-03T04:04:52.537Z,1.25
2023-03-03T04:05:52.503Z,1.21
2023-03-03T04:06:52.499Z,1.22
2023-03-03T04:07:52.480Z,1.25
2023-03-03T04:08:52.475Z,1.18
2023-03-03T04:09:52.469Z,1.10
2023-03-03T04:10:52.452Z,1.15
2023-03-03T04:11:52.436Z,1.21
2023-03-03T04:12:52.430Z,1.22
2023-03-03T04:13:52.435Z,1.22
2023-03-03T04:14:52.409Z,1.24
2023-03-03T04:15:52.522Z,1.18
2023-03-03T04:16:52.388Z,1.24
2023-03-03T04:17:52.386Z,1.15
2023-03-03T04:18:52.368Z,1.08
2023-03-03T04:19:52.488Z,1.14
2023-03-03T04:20:52.333Z,1.15
2023-03-03T04:21:52.322Z,1.07
2023-03-03T04:22:52.353Z,1.10
2023-03-03T04:23:52.301Z,1.08
2023-03-03T04:24:52.302Z,1.07
2023-03-03T04:25:52.283Z,1.08
2023-03-03T04:26:52.272Z,1.08
2023-03-03T04:27:52.280Z,1.06
2023-03-03T04:28:52.241Z,1.12
2023-03-03T04:29:52.278Z,1.00
2023-03-03T04:30:52.274Z,1.06
2023-03-03T04:31:52.329Z,1.07
2023-03-03T04:32:52.209Z,1.15
2023-03-03T04:33:52.199Z,1.07
2023-03-03T04:34:58.598Z,1.04
2023-03-03T04:35:53.278Z,1.19
2023-03-03T04:36:52.153Z,1.14
2023-03-03T04:37:52.164Z,1.08
2023-03-03T04:38:52.142Z,1.10
2023-03-03T04:39:52.131Z,1.12
2023-03-03T04:40:52.120Z,1.06
2023-03-03T04:41:52.106Z,1.14
2023-03-03T04:42:52.095Z,1.01
2023-03-03T04:43:52.086Z,0.97
2023-03-03T04:44:52.061Z,1.08
2023-03-03T04:45:52.185Z,1.04
2023-03-03T04:46:52.046Z,1.04
2023-03-03T04:47:52.030Z,1.08
2023-03-03T04:48:52.030Z,1.15
2023-03-03T04:49:52.035Z,1.12
2023-03-03T04:50:52.019Z,1.10
2023-03-03T04:51:51.989Z,1.18
2023-03-03T04:52:51.972Z,1.15
2023-03-03T04:53:51.980Z,1.19
2023-03-03T04:54:51.954Z,1.24
2023-03-03T04:55:51.965Z,1.28
2023-03-03T04:56:51.947Z,1.44
2023-03-03T04:57:51.939Z,1.43
2023-03-03T04:58:51.931Z,1.37
2023-03-03T04:59:51.918Z,1.36
2023-03-03T05:00:51.914Z,1.42
2023-03-03T05:01:52.003Z,1.42
2023-03-03T05:02:51.868Z,1.44
2023-03-03T05:03:51.858Z,1.51
2023-03-03T05:04:51.929Z,1.50
2023-03-03T05:05:51.852Z,1.58
2023-03-03T05:06:51.846Z,1.54
2023-03-03T05:07:51.824Z,1.58
2023-03-03T05:08:51.797Z,1.61
2023-03-03T05:09:51.776Z,1.61
2023-03-03T05:10:51.779Z,1.58
2023-03-03T05:11:51.751Z,1.73
2023-03-03T05:12:51.742Z,1.64
2023-03-03T05:13:51.742Z,1.68
2023-03-03T05:14:51.733Z,1.68
2023-03-03T05:15:51.780Z,1.76
2023-03-03T05:16:51.712Z,1.69
2023-03-03T05:17:51.720Z,1.76
2023-03-03T05:18:51.683Z,1.76
2023-03-03T05:19:51.665Z,1.73
2023-03-03T05:20:51.697Z,1.60
2023-03-03T05:21:51.634Z,1.73
2023-03-03T05:22:51.641Z,1.68
2023-03-03T05:23:51.625Z,1.76
2023-03-03T05:24:51.637Z,1.71
2023-03-03T05:25:51.602Z,1.73
2023-03-03T05:26:51.592Z,1.62
2023-03-03T05:27:51.579Z,1.78
2023-03-03T05:28:51.559Z,1.65
2023-03-03T05:29:51.543Z,1.73
2023-03-03T05:30:51.577Z,1.65
2023-03-03T05:31:51.533Z,1.68
2023-03-03T05:32:51.518Z,1.75
2023-03-03T05:33:51.566Z,1.68
2023-03-03T05:34:51.490Z,1.75
2023-03-03T05:35:51.550Z,1.61
2023-03-03T05:36:51.479Z,1.79
2023-03-03T05:37:51.450Z,1.71
2023-03-03T05:38:51.456Z,1.76
2023-03-03T05:39:51.452Z,1.69
2023-03-03T05:40:51.449Z,1.79
2023-03-03T05:41:51.412Z,1.76
2023-03-03T05:42:51.505Z,1.69
2023-03-03T05:43:51.405Z,1.76
2023-03-03T05:44:51.422Z,1.65
2023-03-03T05:45:51.374Z,1.78
2023-03-03T05:46:51.400Z,1.78
2023-03-03T05:47:51.342Z,1.72
2023-03-03T05:48:51.335Z,1.76
2023-03-03T05:49:51.350Z,1.75
2023-03-03T05:50:51.348Z,1.61
2023-03-03T05:51:51.329Z,1.80
2023-03-03T05:52:51.310Z,1.79
2023-03-03T05:53:51.301Z,1.82
2023-03-03T05:54:51.272Z,1.69
2023-03-03T05:55:51.254Z,1.69
2023-03-03T05:56:51.305Z,1.57
2023-03-03T05:57:51.248Z,1.71
2023-03-03T05:58:51.262Z,1.73
2023-03-03T05:59:51.223Z,1.65
2023-03-03T06:00:51.231Z,1.78
2023-03-03T06:01:51.240Z,1.78
2023-03-03T06:02:51.248Z,1.76
2023-03-03T06:03:51.177Z,1.72
2023-03-03T06:04:51.171Z,1.72
2023-03-03T06:05:51.170Z,1.73
2023-03-03T06:06:51.163Z,1.78
2023-03-03T06:07:51.116Z,1.76
2023-03-03T06:08:51.129Z,1.78
2023-03-03T06:09:51.102Z,1.79
2023-03-03T06:10:51.109Z,1.78
2023-03-03T06:11:51.086Z,1.79
2023-03-03T06:12:51.068Z,1.87
2023-03-03T06:13:51.052Z,1.79
2023-03-03T06:14:51.045Z,1.87
2023-03-03T06:15:51.025Z,1.90
2023-03-03T06:16:51.045Z,1.83
2023-03-03T06:17:51.002Z,1.89
2023-03-03T06:18:51.013Z,1.82
2023-03-03T06:19:50.983Z,1.76
2023-03-03T06:20:50.975Z,1.80
2023-03-03T06:21:51.084Z,1.87
2023-03-03T06:22:50.952Z,1.79
2023-03-03T06:23:50.961Z,1.94
2023-03-03T06:24:50.933Z,1.78
2023-03-03T06:25:50.914Z,1.76
2023-03-03T06:26:50.943Z,1.87
2023-03-03T06:27:50.909Z,1.89
2023-03-03T06:28:50.882Z,1.87
2023-03-03T06:29:50.881Z,1.85
2023-03-03T06:30:50.877Z,1.94
2023-03-03T06:31:50.988Z,1.91
2023-03-03T06:32:50.851Z,1.98
2023-03-03T06:33:50.820Z,1.94
2023-03-03T06:34:50.820Z,1.91
2023-03-03T06:35:50.870Z,1.83
2023-03-03T06:36:50.808Z,1.85
2023-03-03T06:37:50.889Z,1.91
2023-03-03T06:38:50.770Z,1.87
2023-03-03T06:39:50.765Z,1.98
2023-03-03T06:40:50.769Z,1.97
2023-03-03T06:41:50.746Z,1.93
2023-03-03T06:42:50.746Z,1.89
2023-03-03T06:43:51.352Z,1.98
2023-03-03T06:44:50.715Z,1.94
2023-03-03T06:45:50.768Z,2.02
2023-03-03T06:46:50.694Z,1.94
2023-03-03T06:47:50.671Z,1.97
2023-03-03T06:48:50.668Z,2.01
2023-03-03T06:49:50.653Z,1.90
2023-03-03T06:50:50.647Z,2.04
2023-03-03T06:51:50.647Z,2.04
2023-03-03T06:52:50.622Z,2.02
2023-03-03T06:53:50.624Z,2.06
2023-03-03T06:54:50.588Z,2.02
2023-03-03T06:55:50.572Z,2.04
2023-03-03T06:56:50.596Z,1.99
2023-03-03T06:57:50.550Z,2.09
2023-03-03T06:58:50.545Z,2.09
2023-03-03T06:59:50.528Z,2.17
2023-03-03T07:00:50.584Z,2.15
2023-03-03T07:01:50.517Z,2.04
2023-03-03T07:02:50.500Z,2.08
2023-03-03T07:03:50.542Z,2.12
2023-03-03T07:04:50.502Z,2.09
2023-03-03T07:05:50.480Z,2.10
2023-03-03T07:06:50.491Z,2.08
2023-03-03T07:07:50.444Z,2.10
2023-03-03T07:08:50.456Z,2.02
2023-03-03T07:09:50.463Z,2.09
2023-03-03T07:10:50.435Z,2.08
2023-03-03T07:11:50.415Z,2.08
2023-03-03T07:12:50.423Z,2.13
2023-03-03T07:13:50.398Z,2.08
2023-03-03T07:14:50.391Z,2.06
2023-03-03T07:15:50.373Z,2.09
2023-03-03T07:16:50.397Z,2.02
2023-03-03T07:17:51.314Z,2.02
2023-03-03T07:18:50.357Z,2.09
2023-03-03T07:19:50.417Z,2.10
2023-03-03T07:20:50.331Z,2.13
2023-03-03T07:21:50.295Z,2.13
2023-03-03T07:22:50.300Z,2.09
2023-03-03T07:23:50.286Z,2.15
2023-03-03T07:24:52.753Z,2.10
2023-03-03T07:25:50.299Z,2.06
2023-03-03T07:26:50.264Z,2.20
2023-03-03T07:27:50.259Z,2.17
2023-03-03T07:28:50.220Z,2.09
2023-03-03T07:29:50.211Z,2.13
2023-03-03T07:30:50.259Z,2.06
2023-03-03T07:31:50.197Z,2.08
2023-03-03T07:32:50.188Z,2.12
2023-03-03T07:33:50.161Z,2.10
2023-03-03T07:34:50.166Z,2.04
2023-03-03T07:35:50.224Z,2.06
2023-03-03T07:36:50.131Z,2.12
2023-03-03T07:37:50.144Z,2.10
2023-03-03T07:38:50.116Z,2.12
2023-03-03T07:39:50.094Z,2.06
2023-03-03T07:40:50.100Z,2.09
2023-03-03T07:41:50.096Z,2.19
2023-03-03T07:42:50.093Z,2.19
2023-03-03T07:43:50.069Z,2.12
2023-03-03T07:44:50.044Z,2.15
2023-03-03T07:45:50.083Z,2.12
2023-03-03T07:46:50.033Z,2.16
2023-03-03T07:47:50.035Z,2.12
2023-03-03T07:48:49.995Z,2.13
2023-03-03T07:49:49.997Z,2.10
2023-03-03T07:50:50.012Z,2.12
2023-03-03T07:51:49.962Z,2.17
2023-03-03T07:52:49.972Z,2.20
2023-03-03T07:53:49.987Z,2.17
2023-03-03T07:54:49.929Z,2.20
2023-03-03T07:55:49.928Z,2.20
2023-03-03T07:56:49.908Z,2.20
2023-03-03T07:57:49.925Z,2.22
2023-03-03T07:58:49.886Z,2.20
2023-03-03T07:59:49.895Z,2.30
2023-03-03T08:00:49.898Z,2.31
2023-03-03T08:01:49.862Z,2.30
2023-03-03T08:02:49.872Z,2.35
2023-03-03T08:03:49.828Z,2.33
2023-03-03T08:04:50.057Z,2.34
2023-03-03T08:05:49.823Z,2.44
2023-03-03T08:06:49.806Z,2.31
2023-03-03T08:07:49.812Z,2.35
2023-03-03T08:08:49.778Z,2.34
2023-03-03T08:09:49.759Z,2.48
2023-03-03T08:10:49.803Z,2.41
2023-03-03T08:11:49.771Z,2.51
2023-03-03T08:12:49.744Z,2.51
2023-03-03T08:13:49.757Z,2.49
2023-03-03T08:14:49.699Z,2.53
2023-03-03T08:15:49.797Z,2.44
2023-03-03T08:16:49.674Z,2.49
2023-03-03T08:17:49.689Z,2.52
2023-03-03T08:18:49.652Z,2.48
2023-03-03T08:19:49.633Z,2.59
2023-03-03T08:20:49.643Z,2.61
2023-03-03T08:21:49.624Z,2.69
2023-03-03T08:22:49.630Z,2.76
2023-03-03T08:23:49.591Z,2.56
2023-03-03T08:24:49.586Z,2.77
2023-03-03T08:25:49.565Z,2.70
2023-03-03T08:26:49.568Z,2.76
2023-03-03T08:27:49.556Z,2.67
2023-03-03T08:28:49.544Z,2.74
2023-03-03T08:29:49.555Z,2.79
2023-03-03T08:30:49.539Z,2.79
2023-03-03T08:31:49.556Z,2.88
2023-03-03T08:32:49.547Z,2.79
2023-03-03T08:33:49.473Z,2.91
2023-03-03T08:34:49.478Z,2.92
2023-03-03T08:35:49.489Z,3.02
2023-03-03T08:36:49.472Z,2.88
2023-03-03T08:37:49.446Z,2.92
2023-03-03T08:38:49.425Z,2.91
2023-03-03T08:39:49.412Z,2.89
2023-03-03T08:40:49.406Z,2.92
2023-03-03T08:41:49.380Z,2.98
2023-03-03T08:42:49.386Z,3.00
2023-03-03T08:43:49.360Z,3.13
2023-03-03T08:44:49.361Z,2.98
2023-03-03T08:45:49.370Z,3.02
2023-03-03T08:46:49.415Z,3.03
2023-03-03T08:47:49.426Z,3.09
2023-03-03T08:48:49.318Z,3.09
2023-03-03T08:49:49.293Z,3.12
2023-03-03T08:50:49.283Z,3.09
2023-03-03T08:51:49.266Z,3.07
2023-03-03T08:52:49.288Z,3.18
2023-03-03T08:53:49.244Z,3.00
2023-03-03T08:54:49.252Z,3.09
2023-03-03T08:55:49.236Z,3.05
2023-03-03T08:56:49.235Z,3.00
2023-03-03T08:57:49.230Z,3.07
2023-03-03T08:59:01.627Z,3.10
2023-03-03T08:59:50.186Z,3.07
2023-03-03T09:00:51.197Z,3.15
2023-03-03T09:01:49.220Z,3.12
2023-03-03T09:02:49.163Z,2.97
2023-03-03T09:03:49.146Z,3.13
2023-03-03T09:04:49.151Z,3.02
2023-03-03T09:05:49.136Z,2.94
2023-03-03T09:06:49.101Z,3.00
2023-03-03T09:07:49.106Z,3.02
2023-03-03T09:08:49.091Z,2.94
2023-03-03T09:09:49.070Z,3.03
2023-03-03T09:10:49.073Z,3.10
2023-03-03T09:11:49.072Z,3.12
2023-03-03T09:12:49.064Z,3.21
2023-03-03T09:13:49.018Z,3.16
2023-03-03T09:14:49.031Z,3.24
2023-03-03T09:15:49.185Z,3.25
2023-03-03T09:16:48.986Z,3.24
2023-03-03T09:17:49.011Z,3.25
2023-03-03T09:18:48.991Z,3.25
2023-03-03T09:19:48.963Z,3.20
2023-03-03T09:20:48.956Z,3.27
2023-03-03T09:21:48.944Z,3.31
2023-03-03T09:22:48.934Z,3.34
2023-03-03T09:23:48.922Z,3.39
2023-03-03T09:24:48.914Z,3.27
2023-03-03T09:25:48.900Z,3.30
2023-03-03T09:26:48.881Z,3.46
2023-03-03T09:27:48.888Z,3.39
2023-03-03T09:28:48.873Z,3.47
2023-03-03T09:29:48.851Z,3.52
2023-03-03T09:30:48.832Z,3.54
2023-03-03T09:31:48.860Z,3.58
2023-03-03T09:32:48.837Z,3.67
2023-03-03T09:33:48.821Z,3.57
2023-03-03T09:34:48.792Z,3.53
2023-03-03T09:35:48.820Z,3.67
2023-03-03T09:36:48.761Z,3.70
2023-03-03T09:37:48.783Z,3.64
2023-03-03T09:38:48.750Z,3.62
2023-03-03T09:39:48.752Z,3.70
2023-03-03T09:40:48.726Z,3.68
2023-03-03T09:41:48.711Z,3.65
2023-03-03T09:42:48.706Z,3.65
2023-03-03T09:43:48.684Z,3.80
2023-03-03T09:44:48.681Z,3.65
2023-03-03T09:45:48.678Z,3.76
2023-03-03T09:46:48.757Z,3.70
2023-03-03T09:47:48.659Z,3.78
2023-03-03T09:48:48.628Z,3.82
2023-03-03T09:49:48.659Z,3.80
2023-03-03T09:50:48.621Z,3.78
2023-03-03T09:51:48.604Z,3.79
2023-03-03T09:52:48.604Z,3.96
2023-03-03T09:53:49.214Z,3.96
2023-03-03T09:54:48.565Z,3.97
2023-03-03T09:55:48.548Z,3.94
2023-03-03T09:56:48.531Z,4.06
2023-03-03T09:57:55.731Z,4.01
2023-03-03T09:58:49.522Z,4.06
2023-03-03T09:59:48.516Z,4.08
2023-03-03T10:00:48.498Z,4.03
2023-03-03T10:01:48.493Z,4.06
2023-03-03T10:02:49.096Z,4.16
2023-03-03T10:03:48.526Z,4.06
2023-03-03T10:04:48.769Z,4.01
2023-03-03T10:05:48.777Z,3.98
2023-03-03T10:06:48.418Z,4.03
2023-03-03T10:07:48.442Z,3.86
2023-03-03T10:08:48.411Z,3.94
2023-03-03T10:09:48.404Z,3.90
2023-03-03T10:10:48.393Z,3.94
2023-03-03T10:11:48.766Z,3.90
2023-03-03T10:12:48.533Z,4.03
2023-03-03T10:13:48.355Z,3.88
2023-03-03T10:14:48.341Z,4.08
2023-03-03T10:15:48.338Z,4.07
2023-03-03T10:16:48.374Z,4.18
2023-03-03T10:17:48.648Z,4.14
2023-03-03T10:18:48.657Z,4.22
2023-03-03T10:19:48.298Z,4.10
2023-03-03T10:20:51.314Z,4.03
2023-03-03T10:21:48.282Z,4.07
2023-03-03T10:22:48.252Z,4.06
2023-03-03T10:23:48.568Z,3.96
2023-03-03T10:24:48.216Z,4.19
2023-03-03T10:25:48.487Z,4.16
2023-03-03T10:27:01.759Z,4.06
2023-03-03T10:27:49.285Z,4.15
2023-03-03T10:28:48.180Z,4.12
2023-03-03T10:29:48.188Z,4.15
2023-03-03T10:31:02.581Z,4.22
2023-03-03T10:31:49.286Z,4.32
2023-03-03T10:32:48.405Z,4.28
2023-03-03T10:33:48.260Z,4.36
2023-03-03T10:34:48.113Z,4.42
2023-03-03T10:36:04.662Z,4.46
2023-03-03T10:36:49.095Z,4.46
2023-03-03T10:37:48.131Z,4.57
2023-03-03T10:38:48.082Z,4.55
2023-03-03T10:39:48.052Z,4.67
2023-03-03T10:40:48.037Z,4.65
2023-03-03T10:41:48.045Z,4.75
2023-03-03T10:42:48.048Z,4.73
2023-03-03T10:43:48.032Z,4.70
2023-03-03T10:44:47.992Z,4.73
2023-03-03T10:45:48.036Z,4.75
2023-03-03T10:46:47.983Z,4.77
2023-03-03T10:47:47.960Z,4.75
2023-03-03T10:48:47.983Z,4.88
2023-03-03T10:49:47.950Z,4.89
2023-03-03T10:50:47.952Z,4.95
2023-03-03T10:51:47.913Z,5.01
2023-03-03T10:52:47.911Z,5.16
2023-03-03T10:53:47.937Z,5.01
2023-03-03T10:54:47.918Z,4.94
2023-03-03T10:55:47.960Z,4.92
2023-03-03T10:56:53.332Z,5.09
2023-03-03T10:57:48.849Z,5.05
2023-03-03T10:58:47.936Z,5.12
2023-03-03T10:59:47.861Z,5.22
2023-03-03T11:00:47.881Z,5.19
2023-03-03T11:01:47.801Z,5.28
2023-03-03T11:02:47.788Z,5.35
2023-03-03T11:03:47.793Z,5.28
2023-03-03T11:04:47.881Z,5.46
2023-03-03T11:05:47.791Z,5.48
2023-03-03T11:06:47.741Z,5.48
2023-03-03T11:07:47.750Z,5.59
2023-03-03T11:08:47.718Z,5.50
2023-03-03T11:09:47.747Z,5.55
2023-03-03T11:10:47.724Z,5.63
2023-03-03T11:11:47.704Z,5.64
2023-03-03T11:12:47.727Z,5.66
2023-03-03T11:13:47.665Z,5.73
2023-03-03T11:14:47.675Z,5.81
2023-03-03T11:15:47.661Z,5.77
2023-03-03T11:16:47.748Z,5.95
2023-03-03T11:17:47.640Z,5.91
2023-03-03T11:18:47.614Z,6.07
2023-03-03T11:19:47.629Z,6.07
2023-03-03T11:20:47.603Z,6.09
2023-03-03T11:21:47.591Z,6.13
2023-03-03T11:22:47.580Z,6.09
2023-03-03T11:23:47.565Z,6.14
2023-03-03T11:24:47.553Z,6.25
2023-03-03T11:25:47.565Z,6.38
2023-03-03T11:26:47.561Z,6.43
2023-03-03T11:27:47.531Z,6.50
2023-03-03T11:28:47.494Z,6.65
2023-03-03T11:29:47.487Z,6.61
2023-03-03T11:30:47.511Z,6.66
2023-03-03T11:31:47.467Z,6.79
2023-03-03T11:32:47.479Z,6.83
2023-03-03T11:33:47.443Z,6.72
2023-03-03T11:34:47.442Z,6.79
2023-03-03T11:35:47.432Z,6.80
2023-03-03T11:36:47.404Z,6.84
2023-03-03T11:37:47.411Z,6.81
2023-03-03T11:38:47.392Z,6.97
2023-03-03T11:39:47.373Z,6.91
2023-03-03T11:40:47.370Z,7.04
2023-03-03T11:41:47.416Z,7.07
2023-03-03T11:42:47.366Z,7.22
2023-03-03T11:43:47.343Z,7.19
2023-03-03T11:44:47.357Z,7.34
2023-03-03T11:45:47.408Z,7.24
2023-03-03T11:46:47.290Z,7.34
2023-03-03T11:47:47.318Z,7.44
2023-03-03T11:48:47.288Z,7.53
2023-03-03T11:49:47.277Z,7.53
2023-03-03T11:50:47.250Z,7.58
2023-03-03T11:51:47.258Z,7.50
2023-03-03T11:52:47.239Z,7.47
2023-03-03T11:53:47.234Z,7.42
2023-03-03T11:54:47.197Z,7.44
2023-03-03T11:55:47.265Z,7.41
2023-03-03T11:56:47.189Z,7.27
2023-03-03T11:57:47.222Z,7.29
2023-03-03T11:58:47.182Z,7.29
2023-03-03T11:59:47.159Z,7.35
2023-03-03T12:00:47.135Z,7.24
2023-03-03T12:01:47.144Z,7.40
2023-03-03T12:02:47.179Z,7.49
2023-03-03T12:03:47.100Z,7.41
2023-03-03T12:04:47.153Z,7.40
2023-03-03T12:05:47.131Z,7.42
2023-03-03T12:06:47.075Z,7.41
2023-03-03T12:07:47.083Z,7.40
2023-03-03T12:08:47.038Z,7.37
2023-03-03T12:09:47.031Z,7.37
2023-03-03T12:10:47.033Z,7.52
2023-03-03T12:11:47.024Z,7.50
2023-03-03T12:12:47.010Z,7.69
2023-03-03T12:13:47.010Z,8.00
2023-03-03T12:14:46.993Z,8.17
2023-03-03T12:15:46.993Z,8.45
2023-03-03T12:16:46.960Z,8.79
2023-03-03T12:17:49.044Z,9.15
2023-03-03T12:18:46.942Z,9.40
2023-03-03T12:19:46.922Z,9.68
2023-03-03T12:20:46.943Z,9.88
2023-03-03T12:21:46.913Z,10.14
2023-03-03T12:22:50.457Z,10.28
2023-03-03T12:23:47.892Z,10.44
2023-03-03T12:24:46.868Z,10.58
2023-03-03T12:25:46.868Z,10.84
2023-03-03T12:26:46.849Z,10.92
2023-03-03T12:27:46.833Z,10.88
2023-03-03T12:28:46.851Z,10.94
2023-03-03T12:29:46.871Z,10.96
2023-03-03T12:30:46.787Z,10.98
2023-03-03T12:31:46.789Z,11.01
2023-03-03T12:32:46.782Z,11.09
2023-03-03T12:33:46.776Z,11.17
2023-03-03T12:34:46.742Z,11.34
2023-03-03T12:35:47.564Z,11.34
2023-03-03T12:36:46.721Z,11.28
2023-03-03T12:37:46.728Z,11.29
2023-03-03T12:38:46.751Z,11.16
2023-03-03T12:39:46.734Z,11.03
2023-03-03T12:40:46.688Z,10.84
2023-03-03T12:41:46.668Z,10.74
2023-03-03T12:42:46.656Z,10.59
2023-03-03T12:43:46.722Z,10.43
2023-03-03T12:44:46.645Z,10.28
2023-03-03T12:45:46.672Z,10.12
2023-03-03T12:46:46.631Z,9.97
2023-03-03T12:47:46.601Z,9.99
2023-03-03T12:48:46.597Z,9.83
2023-03-03T12:49:52.081Z,9.56
2023-03-03T12:50:47.594Z,9.56
2023-03-03T12:51:46.569Z,9.58
2023-03-03T12:52:46.554Z,9.52
2023-03-03T12:53:46.543Z,9.50
2023-03-03T12:54:46.556Z,9.40
2023-03-03T12:55:46.510Z,9.34
2023-03-03T12:56:46.509Z,9.27
2023-03-03T12:57:46.503Z,9.24
2023-03-03T12:58:46.475Z,9.31
2023-03-03T12:59:46.483Z,9.30
2023-03-03T13:00:46.470Z,9.15
2023-03-03T13:01:46.464Z,9.12
2023-03-03T13:02:46.442Z,9.13
2023-03-03T13:03:55.291Z,8.97
2023-03-03T13:04:47.434Z,8.87
2023-03-03T13:05:46.427Z,8.86
2023-03-03T13:06:46.397Z,8.81
2023-03-03T13:07:46.465Z,8.91
2023-03-03T13:08:46.371Z,8.78
2023-03-03T13:09:46.383Z,8.86
2023-03-03T13:10:46.348Z,8.78
2023-03-03T13:11:46.350Z,8.69
2023-03-03T13:12:46.319Z,8.63
2023-03-03T13:13:46.336Z,8.65
2023-03-03T13:14:46.316Z,8.51
2023-03-03T13:15:55.134Z,8.58
2023-03-03T13:16:47.334Z,8.57
2023-03-03T13:17:49.216Z,8.57